createdAt,value
2022-08-22T00:00:49.262Z,25.30
2022-08-22T00:02:46.390Z,25.50
2022-08-22T00:03:10.011Z,25.50
2022-08-22T00:03:12.111Z,25.30
2022-08-22T00:03:46.966Z,25.40
2022-08-22T00:06:51.691Z,25.50
2022-08-22T00:09:56.199Z,25.50
2022-08-22T00:12:41.812Z,25.50
2022-08-22T00:15:41.969Z,25.50
2022-08-22T00:18:22.208Z,25.60
2022-08-22T00:21:16.816Z,25.60
2022-08-22T00:23:55.382Z,25.70
2022-08-22T00:26:48.482Z,25.70
2022-08-22T00:29:26.854Z,25.80
2022-08-22T00:32:10.332Z,25.80
2022-08-22T00:34:48.315Z,25.90
2022-08-22T00:37:27.175Z,25.90
2022-08-22T00:40:03.466Z,26.00
2022-08-22T00:43:12.057Z,26.10
2022-08-22T00:46:20.473Z,26.10
2022-08-22T00:48:52.904Z,26.20
2022-08-22T00:51:57.629Z,26.20
2022-08-22T00:54:47.095Z,26.20
2022-08-22T00:57:36.946Z,26.30
2022-08-22T01:00:28.509Z,26.40
2022-08-22T01:03:17.836Z,26.40
2022-08-22T01:06:22.544Z,26.50
2022-08-22T01:09:15.326Z,26.50
2022-08-22T01:12:16.707Z,26.60
2022-08-22T01:15:09.221Z,26.60
2022-08-22T01:18:15.994Z,26.60
2022-08-22T01:21:24.249Z,26.70
2022-08-22T01:24:22.246Z,26.80
2022-08-22T01:27:33.378Z,26.90
2022-08-22T01:30:24.532Z,27.00
2022-08-22T01:33:13.293Z,27.00
2022-08-22T01:36:05.591Z,27.10
2022-08-22T01:39:05.185Z,27.10
2022-08-22T01:41:42.205Z,27.20
2022-08-22T01:44:44.529Z,27.20
2022-08-22T01:47:36.648Z,27.20
2022-08-22T01:50:49.381Z,27.30
2022-08-22T01:53:22.841Z,27.30
2022-08-22T01:56:16.743Z,27.30
2022-08-22T01:59:14.500Z,27.30
2022-08-22T02:01:58.392Z,27.40
2022-08-22T02:04:46.787Z,27.40
2022-08-22T02:07:31.853Z,27.40
2022-08-22T02:10:12.481Z,27.40
2022-08-22T02:12:46.872Z,27.50
2022-08-22T02:15:28.885Z,27.60
2022-08-22T02:18:25.996Z,27.70
2022-08-22T02:21:19.353Z,27.80
2022-08-22T02:24:31.753Z,28.00
2022-08-22T02:27:36.010Z,28.10
2022-08-22T02:30:13.296Z,28.10
2022-08-22T02:32:48.850Z,28.10
2022-08-22T02:35:31.938Z,28.20
2022-08-22T02:38:16.311Z,28.30
2022-08-22T02:41:12.294Z,28.30
2022-08-22T02:44:08.361Z,28.40
2022-08-22T02:47:02.507Z,28.60
2022-08-22T02:49:44.397Z,28.70
2022-08-22T02:52:51.167Z,28.80
2022-08-22T02:55:48.732Z,28.90
2022-08-22T02:58:28.639Z,29.00
2022-08-22T03:01:06.876Z,29.10
2022-08-22T03:03:42.385Z,29.10
2022-08-22T03:06:34.258Z,29.10
2022-08-22T03:09:16.748Z,29.30
2022-08-22T03:11:52.226Z,29.30
2022-08-22T03:14:44.846Z,29.40
2022-08-22T03:17:27.200Z,29.40
2022-08-22T03:20:09.758Z,29.40
2022-08-22T03:22:46.653Z,29.40
2022-08-22T03:25:31.599Z,29.40
2022-08-22T03:28:04.505Z,29.50
2022-08-22T03:30:45.144Z,29.50
2022-08-22T03:33:22.833Z,29.60
2022-08-22T03:36:00.188Z,29.70
2022-08-22T03:38:37.784Z,29.80
2022-08-22T03:41:15.769Z,29.80
2022-08-22T03:44:08.966Z,29.90
2022-08-22T03:46:59.240Z,30.00
2022-08-22T03:49:33.951Z,30.00
2022-08-22T03:52:15.250Z,29.90
2022-08-22T03:55:09.210Z,29.90
2022-08-22T03:58:28.189Z,29.90
2022-08-22T04:01:36.886Z,29.80
2022-08-22T04:04:22.031Z,29.80
2022-08-22T04:07:28.242Z,29.80
2022-08-22T04:10:37.065Z,29.80
2022-08-22T04:13:29.861Z,29.80
2022-08-22T04:16:16.755Z,29.80
2022-08-22T04:18:59.925Z,29.90
2022-08-22T04:22:08.612Z,29.90
2022-08-22T04:24:52.179Z,29.90
2022-08-22T04:27:44.091Z,29.90
2022-08-22T04:30:36.754Z,30.00
2022-08-22T04:33:19.392Z,30.00
2022-08-22T04:36:24.653Z,30.00
2022-08-22T04:39:05.708Z,30.00
2022-08-22T04:42:11.110Z,30.00
2022-08-22T04:45:00.104Z,30.00
2022-08-22T04:47:56.650Z,30.00
2022-08-22T04:50:43.031Z,30.00
2022-08-22T04:53:39.321Z,29.90
2022-08-22T04:56:20.871Z,30.00
2022-08-22T04:58:58.917Z,30.00
2022-08-22T05:01:44.354Z,29.90
2022-08-22T05:04:31.313Z,29.90
2022-08-22T05:07:26.159Z,29.90
2022-08-22T05:10:16.567Z,29.90
2022-08-22T05:12:52.620Z,29.90
2022-08-22T05:15:30.678Z,30.00
2022-08-22T05:18:13.107Z,29.90
2022-08-22T05:20:46.879Z,29.90
2022-08-22T05:23:21.496Z,29.90
2022-08-22T05:25:54.364Z,29.90
2022-08-22T05:28:29.160Z,29.90
2022-08-22T05:30:59.580Z,29.90
2022-08-22T05:33:35.148Z,29.90
2022-08-22T05:36:11.839Z,29.80
2022-08-22T05:38:48.731Z,29.80
2022-08-22T05:41:25.917Z,29.80
2022-08-22T05:43:56.306Z,29.80
2022-08-22T05:46:33.494Z,29.70
2022-08-22T05:49:06.463Z,29.70
2022-08-22T05:51:48.451Z,29.60
2022-08-22T05:54:33.724Z,29.60
2022-08-22T05:57:29.062Z,29.60
2022-08-22T06:00:07.392Z,29.60
2022-08-22T06:03:06.588Z,29.50
2022-08-22T06:05:40.776Z,29.50
2022-08-22T06:08:39.301Z,29.50
2022-08-22T06:11:33.770Z,29.50
2022-08-22T06:14:35.284Z,29.50
2022-08-22T06:17:12.711Z,29.60
2022-08-22T06:19:47.591Z,29.60
2022-08-22T06:22:22.112Z,29.70
2022-08-22T06:24:53.722Z,29.70
2022-08-22T06:27:31.275Z,29.80
2022-08-22T06:30:04.208Z,29.80
2022-08-22T06:32:58.343Z,29.90
2022-08-22T06:36:00.210Z,29.90
2022-08-22T06:38:51.348Z,30.00
2022-08-22T06:41:27.290Z,30.00
2022-08-22T06:43:59.879Z,30.10
2022-08-22T06:46:34.457Z,30.10
2022-08-22T06:49:08.447Z,30.10
2022-08-22T06:51:41.532Z,30.20
2022-08-22T06:54:21.308Z,30.30
2022-08-22T06:56:56.173Z,30.20
2022-08-22T06:59:32.270Z,30.20
2022-08-22T07:02:19.999Z,30.10
2022-08-22T07:04:55.606Z,30.10
2022-08-22T07:07:30.131Z,30.00
2022-08-22T07:10:00.502Z,30.00
2022-08-22T07:12:37.532Z,29.90
2022-08-22T07:15:27.300Z,29.90
2022-08-22T07:18:04.918Z,29.90
2022-08-22T07:20:47.899Z,29.80
2022-08-22T07:23:41.575Z,29.70
2022-08-22T07:26:31.163Z,29.70
2022-08-22T07:29:22.392Z,29.70
2022-08-22T07:32:20.116Z,29.60
2022-08-22T07:34:59.958Z,29.60
2022-08-22T07:37:53.365Z,29.60
2022-08-22T07:43:47.133Z,29.70
2022-08-22T07:46:34.067Z,29.70
2022-08-22T07:49:16.627Z,29.80
2022-08-22T07:51:54.220Z,29.80
2022-08-22T07:54:44.705Z,29.80
2022-08-22T07:57:25.837Z,29.80
2022-08-22T08:00:00.191Z,29.80
2022-08-22T08:02:33.871Z,29.80
2022-08-22T08:05:05.378Z,29.80
2022-08-22T08:07:35.026Z,29.80
2022-08-22T08:10:12.908Z,29.80
2022-08-22T08:12:57.929Z,29.80
2022-08-22T08:15:35.837Z,29.90
2022-08-22T08:18:10.230Z,29.80
2022-08-22T08:20:40.266Z,29.80
2022-08-22T08:23:12.547Z,29.80
2022-08-22T08:26:04.606Z,29.80
2022-08-22T08:28:35.787Z,29.80
2022-08-22T08:31:14.017Z,29.80
2022-08-22T08:33:56.646Z,29.90
2022-08-22T08:36:36.713Z,29.90
2022-08-22T08:39:14.698Z,29.90
2022-08-22T08:42:30.233Z,30.00
2022-08-22T08:45:29.076Z,30.00
2022-08-22T08:48:28.956Z,30.00
2022-08-22T08:51:10.156Z,29.90
2022-08-22T08:54:06.611Z,29.80
2022-08-22T08:56:47.394Z,29.80
2022-08-22T08:59:49.462Z,29.80
2022-08-22T09:02:25.711Z,29.80
2022-08-22T09:05:32.595Z,29.80
2022-08-22T09:08:07.032Z,29.80
2022-08-22T09:11:14.600Z,29.80
2022-08-22T09:14:26.978Z,29.80
2022-08-22T09:17:17.864Z,29.80
2022-08-22T09:20:19.412Z,29.80
2022-08-22T09:23:17.097Z,29.70
2022-08-22T09:26:06.966Z,29.60
2022-08-22T09:28:46.697Z,29.60
2022-08-22T09:34:32.439Z,29.50
2022-08-22T09:37:17.743Z,29.50
2022-08-22T09:40:17.628Z,29.50
2022-08-22T09:42:57.286Z,29.40
2022-08-22T09:45:32.724Z,29.40
2022-08-22T09:48:07.179Z,29.40
2022-08-22T09:51:13.646Z,29.30
2022-08-22T09:54:09.874Z,29.30
2022-08-22T09:57:02.415Z,29.30
2022-08-22T09:59:59.577Z,29.20
2022-08-22T10:02:50.277Z,29.20
2022-08-22T10:05:35.134Z,29.20
2022-08-22T10:08:36.335Z,29.20
2022-08-22T10:11:10.009Z,29.20
2022-08-22T10:14:01.389Z,29.20
2022-08-22T10:17:10.245Z,29.10
2022-08-22T10:19:46.847Z,29.10
2022-08-22T10:22:44.639Z,29.10
2022-08-22T10:25:42.174Z,29.10
2022-08-22T10:28:39.147Z,29.00
2022-08-22T10:31:31.563Z,29.00
2022-08-22T10:34:13.125Z,29.00
2022-08-22T10:37:08.687Z,29.00
2022-08-22T10:39:46.274Z,28.90
2022-08-22T10:42:35.225Z,28.90
2022-08-22T10:45:36.197Z,28.90
2022-08-22T10:48:10.173Z,28.90
2022-08-22T10:50:45.493Z,28.80
2022-08-22T10:53:31.903Z,28.80
2022-08-22T10:56:08.482Z,28.80
2022-08-22T10:59:03.997Z,28.70
2022-08-22T11:01:41.767Z,28.70
2022-08-22T11:04:32.946Z,28.70
2022-08-22T11:07:14.219Z,28.60
2022-08-22T11:09:45.982Z,28.60
2022-08-22T11:12:26.630Z,28.60
2022-08-22T11:15:34.534Z,28.50
2022-08-22T11:18:05.432Z,28.50
2022-08-22T11:21:14.051Z,28.50
2022-08-22T11:23:51.156Z,28.50
2022-08-22T11:26:47.368Z,28.50
2022-08-22T11:29:43.449Z,28.50
2022-08-22T11:32:38.066Z,28.40
2022-08-22T11:35:15.249Z,28.40
2022-08-22T11:38:14.342Z,28.40
2022-08-22T11:40:45.478Z,28.40
2022-08-22T11:43:35.859Z,28.40
2022-08-22T11:46:20.784Z,28.30
2022-08-22T11:49:07.028Z,28.30
2022-08-22T11:51:58.715Z,28.30
2022-08-22T11:54:48.057Z,28.30
2022-08-22T11:57:29.567Z,28.30
2022-08-22T12:00:28.573Z,28.20
2022-08-22T12:03:25.354Z,28.20
2022-08-22T12:06:23.178Z,28.20
2022-08-22T12:09:14.516Z,28.10
2022-08-22T12:12:10.765Z,28.10
2022-08-22T12:15:00.306Z,28.10
2022-08-22T12:17:59.939Z,28.00
2022-08-22T12:20:52.247Z,28.00
2022-08-22T12:24:00.794Z,28.00
2022-08-22T12:26:59.291Z,28.00
2022-08-22T12:30:04.413Z,27.90
2022-08-22T12:32:39.250Z,27.90
2022-08-22T12:35:31.153Z,27.90
2022-08-22T12:38:26.645Z,27.90
2022-08-22T12:41:35.022Z,27.80
2022-08-22T12:44:28.550Z,27.80
2022-08-22T12:47:17.947Z,27.90
2022-08-22T12:50:21.656Z,27.80
2022-08-22T12:53:14.972Z,27.80
2022-08-22T12:56:18.836Z,27.80
2022-08-22T12:59:07.283Z,27.80
2022-08-22T13:01:43.432Z,27.70
2022-08-22T13:04:32.427Z,27.70
2022-08-22T13:07:10.309Z,27.70
2022-08-22T13:09:43.279Z,27.70
2022-08-22T13:12:32.000Z,27.70
2022-08-22T13:15:23.255Z,27.70
2022-08-22T13:17:54.360Z,27.70
2022-08-22T13:20:27.972Z,27.70
2022-08-22T13:22:57.929Z,27.60
2022-08-22T13:25:30.733Z,27.50
2022-08-22T13:28:03.244Z,27.50
2022-08-22T13:30:41.813Z,27.50
2022-08-22T13:33:24.017Z,27.50
2022-08-22T13:35:57.307Z,27.50
2022-08-22T13:38:29.715Z,27.40
2022-08-22T13:41:01.015Z,27.50
2022-08-22T13:43:36.638Z,27.50
2022-08-22T13:46:10.991Z,27.40
2022-08-22T13:49:01.145Z,27.40
2022-08-22T13:51:32.719Z,27.50
2022-08-22T13:54:10.945Z,27.50
2022-08-22T13:57:04.192Z,27.50
2022-08-22T13:59:53.623Z,27.40
2022-08-22T14:02:31.085Z,27.40
2022-08-22T14:05:09.454Z,27.40
2022-08-22T14:07:56.778Z,27.30
2022-08-22T14:10:33.031Z,27.30
2022-08-22T14:13:04.317Z,27.30
2022-08-22T14:15:45.458Z,27.30
2022-08-22T14:18:22.152Z,27.30
2022-08-22T14:21:27.715Z,27.30
2022-08-22T14:24:06.818Z,27.30
2022-08-22T14:26:47.511Z,27.40
2022-08-22T14:29:19.774Z,27.40
2022-08-22T14:32:14.598Z,27.40
2022-08-22T14:34:52.225Z,27.40
2022-08-22T14:37:30.634Z,27.40
2022-08-22T14:40:05.788Z,27.40
2022-08-22T14:42:47.911Z,27.40
2022-08-22T14:45:26.700Z,27.40
2022-08-22T14:48:29.825Z,27.40
2022-08-22T14:51:04.330Z,27.40
2022-08-22T14:53:37.545Z,27.30
2022-08-22T14:56:11.464Z,27.30
2022-08-22T14:58:53.510Z,27.30
2022-08-22T15:01:26.161Z,27.30
2022-08-22T15:04:09.468Z,27.30
2022-08-22T15:06:48.039Z,27.30
2022-08-22T15:09:29.744Z,27.30
2022-08-22T15:12:01.533Z,27.30
2022-08-22T15:14:39.668Z,27.30
2022-08-22T15:17:12.556Z,27.30
2022-08-22T15:19:47.668Z,27.30
2022-08-22T15:22:25.760Z,27.20
2022-08-22T15:25:01.873Z,27.20
2022-08-22T15:27:34.464Z,27.20
2022-08-22T15:30:18.818Z,27.20
2022-08-22T15:32:50.858Z,27.20
2022-08-22T15:35:33.477Z,27.20
2022-08-22T15:38:04.961Z,27.20
2022-08-22T15:40:40.337Z,27.20
2022-08-22T15:43:21.746Z,27.20
2022-08-22T15:45:55.074Z,27.10
2022-08-22T15:48:32.579Z,27.10
2022-08-22T15:51:09.186Z,27.10
2022-08-22T15:53:47.334Z,27.10
2022-08-22T15:56:27.593Z,27.10
2022-08-22T15:59:16.790Z,27.10
2022-08-22T16:01:53.884Z,27.10
2022-08-22T16:04:48.740Z,27.00
2022-08-22T16:07:38.043Z,27.10
2022-08-22T16:10:12.759Z,27.10
2022-08-22T16:12:47.405Z,27.10
2022-08-22T16:15:56.484Z,27.10
2022-08-22T16:18:43.861Z,27.10
2022-08-22T16:21:33.142Z,27.10
2022-08-22T16:24:03.310Z,27.10
2022-08-22T16:26:33.599Z,27.10
2022-08-22T16:29:18.139Z,27.00
2022-08-22T16:31:49.424Z,27.00
2022-08-22T16:34:19.572Z,27.00
2022-08-22T16:37:12.278Z,27.00
2022-08-22T16:39:47.289Z,27.00
2022-08-22T16:42:17.426Z,27.00
2022-08-22T16:44:48.581Z,27.00
2022-08-22T16:47:34.985Z,27.00
2022-08-22T16:50:10.562Z,27.00
2022-08-22T16:52:53.451Z,27.00
2022-08-22T16:55:41.078Z,27.00
2022-08-22T16:58:35.837Z,27.00
2022-08-22T17:01:40.973Z,27.00
2022-08-22T17:04:28.973Z,27.10
2022-08-22T17:07:28.426Z,27.00
2022-08-22T17:09:59.542Z,27.10
2022-08-22T17:12:48.998Z,27.10
2022-08-22T17:15:57.501Z,27.10
2022-08-22T17:18:50.596Z,27.10
2022-08-22T17:21:30.571Z,27.10
2022-08-22T17:24:07.968Z,27.10
2022-08-22T17:27:16.369Z,27.00
2022-08-22T17:30:10.714Z,27.00
2022-08-22T17:32:51.374Z,27.00
2022-08-22T17:35:48.554Z,27.00
2022-08-22T17:38:37.847Z,27.00
2022-08-22T17:41:27.951Z,26.90
2022-08-22T17:44:29.747Z,26.90
2022-08-22T17:47:07.627Z,26.90
2022-08-22T17:49:46.299Z,26.90
2022-08-22T17:52:43.069Z,26.90
2022-08-22T17:55:34.519Z,26.90
2022-08-22T17:58:31.860Z,26.80
2022-08-22T18:01:15.266Z,26.80
2022-08-22T18:03:53.042Z,26.80
2022-08-22T18:06:36.521Z,26.80
2022-08-22T18:09:19.018Z,26.80
2022-08-22T18:11:57.395Z,26.80
2022-08-22T18:14:46.494Z,26.80
2022-08-22T18:17:34.134Z,26.80
2022-08-22T18:20:18.651Z,26.80
2022-08-22T18:22:55.965Z,26.80
2022-08-22T18:25:26.384Z,26.70
2022-08-22T18:28:02.683Z,26.70
2022-08-22T18:30:38.425Z,26.70
2022-08-22T18:33:27.757Z,26.60
2022-08-22T18:36:21.230Z,26.60
2022-08-22T18:38:55.913Z,26.60
2022-08-22T18:41:31.821Z,26.60
2022-08-22T18:44:02.977Z,26.60
2022-08-22T18:46:41.116Z,26.60
2022-08-22T18:49:22.288Z,26.60
2022-08-22T18:52:11.592Z,26.60
2022-08-22T18:54:55.175Z,26.60
2022-08-22T18:57:38.689Z,26.60
2022-08-22T19:00:22.102Z,26.50
2022-08-22T19:03:12.279Z,26.50
2022-08-22T19:06:17.080Z,26.40
2022-08-22T19:09:23.489Z,26.40
2022-08-22T19:12:13.873Z,26.40
2022-08-22T19:15:04.560Z,26.30
2022-08-22T19:18:01.976Z,26.30
2022-08-22T19:20:53.249Z,26.30
2022-08-22T19:23:41.768Z,26.20
2022-08-22T19:26:33.855Z,26.30
2022-08-22T19:29:28.057Z,26.20
2022-08-22T19:32:05.752Z,26.20
2022-08-22T19:34:41.755Z,26.20
2022-08-22T19:37:30.482Z,26.10
2022-08-22T19:40:10.525Z,26.10
2022-08-22T19:42:44.332Z,26.10
2022-08-22T19:45:30.048Z,26.20
2022-08-22T19:48:13.221Z,26.10
2022-08-22T19:50:43.692Z,26.20
2022-08-22T19:53:56.787Z,26.10
2022-08-22T19:56:49.677Z,26.10
2022-08-22T19:59:50.883Z,26.10
2022-08-22T20:02:40.689Z,26.10
2022-08-22T20:05:24.749Z,26.10
2022-08-22T20:08:13.761Z,26.10
2022-08-22T20:10:54.583Z,26.10
2022-08-22T20:13:25.927Z,26.10
2022-08-22T20:16:17.360Z,26.00
2022-08-22T20:19:09.472Z,26.00
2022-08-22T20:22:02.481Z,25.90
2022-08-22T20:24:39.965Z,25.90
2022-08-22T20:27:16.128Z,25.90
2022-08-22T20:29:51.509Z,25.90
2022-08-22T20:32:22.701Z,25.90
2022-08-22T20:34:56.398Z,25.90
2022-08-22T20:38:04.883Z,25.90
2022-08-22T20:40:54.981Z,25.90
2022-08-22T20:43:36.486Z,25.80
2022-08-22T20:46:07.940Z,25.80
2022-08-22T20:48:45.712Z,25.80
2022-08-22T20:51:19.109Z,25.80
2022-08-22T20:54:01.667Z,25.80
2022-08-22T20:56:53.317Z,25.70
2022-08-22T20:59:41.499Z,25.70
2022-08-22T21:02:16.641Z,25.50
2022-08-22T21:04:52.830Z,25.50
2022-08-22T21:07:25.124Z,25.50
2022-08-22T21:10:23.058Z,25.50
2022-08-22T21:13:18.308Z,25.50
2022-08-22T21:15:50.821Z,25.50
2022-08-22T21:18:31.981Z,25.50
2022-08-22T21:21:23.543Z,25.60
2022-08-22T21:23:59.947Z,25.60
2022-08-22T21:26:31.982Z,25.60
2022-08-22T21:29:06.341Z,25.60
2022-08-22T21:31:48.022Z,25.60
2022-08-22T21:34:21.001Z,25.70
2022-08-22T21:36:53.862Z,25.70
2022-08-22T21:39:26.339Z,25.80
2022-08-22T21:42:10.581Z,25.70
2022-08-22T21:44:43.133Z,25.80
2022-08-22T21:47:35.571Z,25.70
2022-08-22T21:50:24.986Z,25.70
2022-08-22T21:52:59.795Z,25.80
2022-08-22T21:55:35.085Z,25.80
2022-08-22T21:58:08.972Z,25.80
2022-08-22T22:00:50.447Z,25.80
2022-08-22T22:03:22.948Z,25.80
2022-08-22T22:05:54.367Z,25.80
2022-08-22T22:08:23.549Z,25.80
2022-08-22T22:11:02.019Z,25.80
2022-08-22T22:13:34.602Z,25.80
2022-08-22T22:16:04.464Z,25.80
2022-08-22T22:18:35.818Z,25.70
2022-08-22T22:21:05.431Z,25.70
2022-08-22T22:23:34.832Z,25.70
2022-08-22T22:26:06.450Z,25.60
2022-08-22T22:28:41.340Z,25.60
2022-08-22T22:31:11.051Z,25.60
2022-08-22T22:33:42.625Z,25.60
2022-08-22T22:36:17.711Z,25.60
2022-08-22T22:38:47.464Z,25.60
2022-08-22T22:41:16.621Z,25.60
2022-08-22T22:43:45.963Z,25.60
2022-08-22T22:46:15.116Z,25.60
2022-08-22T22:48:44.368Z,25.60
2022-08-22T22:51:15.067Z,25.50
2022-08-22T22:53:46.189Z,25.50
2022-08-22T22:56:21.518Z,25.50
2022-08-22T22:59:00.617Z,25.40
2022-08-22T23:01:41.286Z,25.50
2022-08-22T23:04:12.663Z,25.50
2022-08-22T23:06:41.857Z,25.50
2022-08-22T23:09:11.061Z,25.50
2022-08-22T23:11:45.003Z,25.50
2022-08-22T23:14:14.295Z,25.40
2022-08-22T23:16:45.892Z,25.40
2022-08-22T23:19:17.809Z,25.50
2022-08-22T23:21:48.330Z,25.50
2022-08-22T23:24:17.562Z,25.40
2022-08-22T23:26:46.653Z,25.40
2022-08-22T23:29:16.667Z,25.40
2022-08-22T23:31:52.648Z,25.40
2022-08-22T23:34:26.254Z,25.40
2022-08-22T23:36:57.718Z,25.40
2022-08-22T23:39:28.744Z,25.40
2022-08-22T23:41:59.190Z,25.40
2022-08-22T23:44:31.371Z,25.40
2022-08-22T23:47:01.596Z,25.40
2022-08-22T23:49:32.204Z,25.50
2022-08-22T23:52:01.702Z,25.50
2022-08-22T23:54:30.809Z,25.50
2022-08-22T23:57:02.499Z,25.50
2022-08-22T23:59:36.039Z,25.50
